• Join FlightAware (Why Join?)
  • Login
  • US Flag 
06:01PM EDT


 

Airport Tracker/Info


-or-


 

Live Flight TrackerFlight Track Log ✈ SLI647 ✈ 10-Sep-2013 ✈ MMMX / MEX - MMMD / MID

Flight Track Log - Related Links

Times and Time Zones

All times are in EDT time to prevent confusion due to time zone crossing. See the SLI647 flight status page for this flight to view local times or setup timezone preferences in your user account.

Time Position Orientation Groundspeed Altitude Reporting Facility
EDT Latitude Longitude Course Direction KTS MPH feet Rate Location/Type
10:36PM 19.5103 -98.6752 79° East  Level Estimated
10:37PM 19.5286 -98.5759 79° East  Level Estimated
10:38PM 19.5469 -98.4766 79° East  Level Estimated
10:39PM 19.5651 -98.3773 79° East  Level Estimated
10:40PM 19.5833 -98.2779 79° East  Level Estimated
10:41PM 19.6015 -98.1786 79° East  Level Estimated
10:42PM 19.6196 -98.0792 79° East  Level Estimated
10:43PM 19.6376 -97.9798 79° East  Level Estimated
10:44PM 19.6556 -97.8803 79° East  Level Estimated
10:45PM 19.6735 -97.7809 79° East  Level Estimated
10:46PM 19.6913 -97.6814 79° East  Level Estimated
10:47PM 19.7091 -97.5819 79° East  Level Estimated
10:48PM 19.7269 -97.4823 79° East  Level Estimated
10:49PM 19.7446 -97.3828 79° East  Level Estimated
10:50PM 19.7622 -97.2832 79° East  Level Estimated
10:51PM 19.7798 -97.1836 79° East  Level Estimated
10:52PM 19.7973 -97.0840 79° East  Level Estimated
10:53PM 19.8148 -96.9844 79° East  Level Estimated
10:54PM 19.8323 -96.8847 79° East  Level Estimated
10:55PM 19.8496 -96.7850 79° East  Level Estimated
10:56PM 19.8669 -96.6853 80° East  Level Estimated
10:57PM 19.8842 -96.5856 80° East  Level Estimated
10:58PM 19.9014 -96.4858 80° East  Level Estimated
10:59PM 19.9185 -96.3861 80° East  Level Estimated
11:00PM 19.9356 -96.2863 80° East  Level Estimated
11:01PM 19.9527 -96.1865 80° East  Level Estimated
11:02PM 19.9696 -96.0866 80° East  Level Estimated
11:03PM 19.9865 -95.9868 80° East  Level Estimated
11:04PM 20.0034 -95.8869 80° East  Level Estimated
11:05PM 20.0202 -95.7870 80° East  Level Estimated
11:06PM 20.0370 -95.6871 80° East  Level Estimated
11:07PM 20.0537 -95.5872 80° East  Level Estimated
11:08PM 20.0703 -95.4872 80° East  Level Estimated
11:09PM 20.0869 -95.3872 80° East  Level Estimated
11:10PM 20.1034 -95.2872 80° East  Level Estimated
11:11PM 20.1199 -95.1872 80° East  Level Estimated
11:12PM 20.1363 -95.0871 80° East  Level Estimated
11:13PM 20.1527 -94.9871 80° East  Level Estimated
11:14PM 20.1690 -94.8870 80° East  Level Estimated
11:15PM 20.1852 -94.7869 80° East  Level Estimated
11:16PM 20.2014 -94.6867 80° East  Level Estimated
11:17PM 20.2176 -94.5866 80° East  Level Estimated
11:18PM 20.2336 -94.4864 80° East  Level Estimated
11:19PM 20.2496 -94.3862 80° East  Level Estimated
11:20PM 20.2656 -94.2860 80° East  Level Estimated
11:21PM 20.2815 -94.1858 80° East  Level Estimated
11:22PM 20.2974 -94.0855 80° East  Level Estimated
11:23PM 20.3132 -93.9853 80° East  Level Estimated
11:24PM 20.3289 -93.8850 80° East  Level Estimated
11:25PM 20.3446 -93.7847 81° East  Level Estimated
11:26PM 20.3602 -93.6843 81° East  Level Estimated
11:27PM 20.3757 -93.5840 81° East  Level Estimated
11:28PM 20.3913 -93.4836 81° East  Level Estimated
11:29PM 20.4067 -93.3832 81° East  Level Estimated
11:30PM 20.4221 -93.2828 81° East  Level Estimated
11:31PM 20.4374 -93.1823 81° East  Level Estimated
11:32PM 20.4527 -93.0819 81° East  Level Estimated
11:33PM 20.4679 -92.9814 81° East  Level Estimated
11:34PM 20.4831 -92.8809 81° East  Level Estimated
11:35PM 20.4982 -92.7804 81° East  Level Estimated
11:36PM 20.5132 -92.6798 81° East  Level Estimated
11:37PM 20.5282 -92.5793 81° East  Level Estimated
11:38PM 20.5431 -92.4787 81° East  Level Estimated
11:39PM 20.5580 -92.3781 81° East  Level Estimated
11:40PM 20.5728 -92.2775 81° East  Level Estimated
11:41PM 20.5876 -92.1769 81° East  Level Estimated
11:42PM 20.6023 -92.0762 81° East  Level Estimated
11:43PM 20.6169 -91.9756 81° East  Level Estimated
11:44PM 20.6315 -91.8749 81° East  Level Estimated
11:45PM 20.6460 -91.7742 81° East  Level Estimated
11:46PM 20.6605 -91.6734 81° East  Level Estimated
11:47PM 20.6749 -91.5727 81° East  Level Estimated
11:48PM 20.6892 -91.4719 81° East  Level Estimated
11:49PM 20.7035 -91.3711 81° East  Level Estimated
11:50PM 20.7177 -91.2703 81° East  Level Estimated
11:51PM 20.7319 -91.1695 81° East  Level Estimated
11:52PM 20.7460 -91.0686 81° East  Level Estimated
11:53PM 20.7601 -90.9678 82° East  Level Estimated
11:54PM 20.7740 -90.8669 82° East  Level Estimated
11:55PM 20.7880 -90.7660 82° East  Level Estimated
11:56PM 20.8018 -90.6651 82° East  Level Estimated
11:57PM 20.8157 -90.5641 82° East  Level Estimated
11:58PM 20.8294 -90.4632 82° East  Level Estimated